• Join FlightAware (Why Join?)
  • Login
  • US Flag 
08:02PM EST


 

Airport Tracker/Info


-or-


 

Live Flight TrackerFlight Track Log ✈ DAL6036 ✈ 08-May-2013 ✈ KDTW - KGRR

Flight Track Log - Related Links

Times and Time Zones

All times are in EDT time to prevent confusion due to time zone crossing. See the DAL6036 flight status page for this flight to view local times or setup timezone preferences in your user account.

Time Position Orientation Groundspeed Altitude Reporting Facility
EDT Latitude Longitude Course Direction KTS MPH feet Rate Location/Type
08:55PM 42.2017 -83.3583 294° West 170 196 1,200  Level Cleveland Center
08:56PM 42.1647 -83.4183 230° Southwest 216 249 3,300 1,860 Climbing Cleveland Center
08:58PM 42.1192 -83.4861 228° Southwest 265 305 5,200 2,220 Climbing Cleveland Center
08:58PM 42.1214 -83.5675 272° West 287 330 7,700 2,340 Climbing Cleveland Center
08:59PM 42.3236 -83.8042 294° West  Level FlightAware Approximate
08:59PM 42.1589 -83.6419 304° West 296 341 9,800  Level Cleveland Center
09:00PM 42.3506 -83.9195 285° West  Level FlightAware Approximate
09:00PM 42.2003 -83.7281 303° West 284 327 11,100  Level Cleveland Center
09:01PM 42.3782 -84.0346 294° West  Level FlightAware Approximate
09:01PM 42.2497 -83.8317 303° West 297 342 11,900  Level Cleveland Center
09:02PM 42.3028 -83.9383 304° West 324 373 12,000  Climbing Cleveland Center
09:03PM 42.3578 -84.0508 304° West 349 402 12,000 -60 Level Cleveland Center
09:04PM 42.4128 -84.1664 303° West 361 415 11,900  Descending Cleveland Center
09:05PM 42.4397 -84.2972 286° West 356 410 12,000  Climbing Cleveland Center
09:06PM 42.4797 -84.4150 295° West 356 410 12,000 -300 Level Cleveland Center
09:07PM 42.5236 -84.5361 296° West 356 410 11,500 -720 Descending Cleveland Center
09:08PM 42.5694 -84.6547 298° West 356 410 10,600 -840 Descending Cleveland Center
09:09PM 42.5931 -84.7181 297° West 356 410 10,200 -480 Descending Chicago Center
09:10PM 42.6364 -84.8372 296° West 355 409 9,900 -480 Descending Chicago Center
09:11PM 42.6761 -84.9514 295° West 287 330 9,300 -780 Descending Chicago Center
09:12PM 42.7150 -85.0356 302° West 268 308 8,300 -1,320 Descending Chicago Center
09:13PM 42.7589 -85.1167 306° West 267 307 6,600 -1,560 Descending Chicago Center
09:14PM 42.8011 -85.1964 306° West 263 303 5,100 -1,500 Descending Chicago Center
09:15PM 42.8411 -85.2747 305° West 256 295 3,600 -1,500 Descending Chicago Center